Time;durP1;ratioP1;P1;durP2;ratioP2;P2;SDS_P1;SDS_P2;PMS_P1;PMS_P2;Temp;Humidity;BMP_temperature;BMP_pressure;BME280_temperature;BME280_humidity;BME280_pressure;Samples;Min_cycle;Max_cycle;Signal;HPM_P1;HPM_P2
2023/05/16 00:00:05;;;;;;;0.10;0.10;;;;;;;;;;6159154;23;20005;-87
2023/05/16 00:02:31;;;;;;;;;;;11.30;99.90;;;;;;6160167;23;20588;-86
2023/05/16 00:04:56;;;;;;;0.10;0.10;;;11.40;99.90;;;;;;6159003;23;19907;-87
2023/05/16 00:07:22;;;;;;;0.00;0.00;;;11.60;99.90;;;;;;6158065;23;20017;-87
2023/05/16 00:09:48;;;;;;;0.10;0.10;;;13.00;99.90;;;;;;6158882;23;20005;-87
2023/05/16 00:12:13;;;;;;;0.10;0.10;;;11.10;99.90;;;;;;6158236;23;20009;-86
2023/05/16 00:14:39;;;;;;;0.10;0.10;;;11.20;99.90;;;;;;6158202;23;20013;-88
2023/05/16 00:17:10;;;;;;;0.10;0.10;;;11.40;99.90;;;;;;6158471;23;20009;-88
2023/05/16 00:19:38;;;;;;;0.00;0.00;;;11.10;99.90;;;;;;6159578;23;19997;-89
2023/05/16 00:22:04;;;;;;;0.05;0.05;;;11.10;99.90;;;;;;6158845;23;20031;-87
2023/05/16 00:24:30;;;;;;;0.10;0.10;;;;;;;;;;6158641;23;20389;-87
2023/05/16 00:26:55;;;;;;;0.05;0.05;;;11.30;99.90;;;;;;6158443;23;20016;-89
2023/05/16 00:29:23;;;;;;;0.00;0.00;;;;;;;;;;6158563;23;20012;-87
2023/05/16 00:31:49;;;;;;;0.00;0.00;;;11.30;99.90;;;;;;6158894;23;20005;-87
2023/05/16 00:34:15;;;;;;;0.00;0.00;;;;;;;;;;6184624;23;20076;-88
2023/05/16 00:36:41;;;;;;;0.10;0.10;;;;;;;;;;6159099;23;20365;-85
2023/05/16 00:39:07;;;;;;;0.10;0.10;;;;;;;;;;6159089;23;20009;-88
2023/05/16 00:41:33;;;;;;;0.10;0.10;;;11.40;99.90;;;;;;6157981;23;20016;-88
2023/05/16 00:43:59;;;;;;;0.10;0.10;;;;;;;;;;6183556;23;20005;-85
2023/05/16 00:46:25;;;;;;;0.10;0.10;;;;;;;;;;6158074;23;20036;-86
2023/05/16 00:48:51;;;;;;;0.05;0.05;;;;;;;;;;6159525;23;20032;-89
2023/05/16 00:51:17;;;;;;;0.00;0.00;;;11.50;99.90;;;;;;6159029;23;20005;-88
2023/05/16 00:53:43;;;;;;;0.00;0.00;;;11.50;99.90;;;;;;6158231;23;20016;-87
2023/05/16 00:56:09;;;;;;;0.10;0.10;;;;;;;;;;6158025;23;20009;-87
2023/05/16 00:58:35;;;;;;;0.10;0.10;;;11.70;99.90;;;;;;6157414;23;20011;-87
2023/05/16 01:01:02;;;;;;;0.00;0.00;;;;;;;;;;6184267;23;19997;-87
2023/05/16 01:03:28;;;;;;;0.00;0.00;;;11.60;99.90;;;;;;6158333;23;20005;-87
2023/05/16 01:05:54;;;;;;;0.10;0.10;;;11.70;99.90;;;;;;6156869;23;20132;-86
2023/05/16 01:08:20;;;;;;;0.00;0.00;;;11.60;99.90;;;;;;6158125;23;20015;-85
2023/05/16 01:10:59;;;;;;;0.03;0.03;;;11.70;99.90;;;;;;6157888;23;20120;-87
2023/05/16 01:13:39;;;;;;;0.10;0.10;;;11.70;99.90;;;;;;6180638;23;20005;-86
2023/05/16 01:16:05;;;;;;;0.10;0.10;;;;;;;;;;6156022;23;20016;-88
2023/05/16 01:18:54;;;;;;;0.10;0.10;;;11.70;99.90;;;;;;6157491;23;20005;-88
2023/05/16 01:21:39;;;;;;;0.00;0.00;;;11.50;99.90;;;;;;6157516;23;20005;-88
2023/05/16 01:24:15;;;;;;;0.00;0.00;;;11.40;99.90;;;;;;6157879;23;20032;-87
2023/05/16 01:26:41;;;;;;;0.10;0.10;;;11.40;99.90;;;;;;6158566;23;20384;-88
2023/05/16 01:29:07;;;;;;;0.10;0.10;;;;;;;;;;6183294;23;20091;-88
2023/05/16 01:31:33;;;;;;;0.10;0.10;;;;;;;;;;6157510;23;20066;-89
2023/05/16 01:33:59;;;;;;;0.10;0.10;;;;;;;;;;6157536;23;20071;-89
2023/05/16 01:36:47;;;;;;;0.10;0.10;;;11.50;99.90;;;;;;6157473;23;20012;-88
2023/05/16 01:39:35;;;;;;;0.00;0.00;;;11.50;99.90;;;;;;6157874;23;20017;-88
2023/05/16 01:42:06;;;;;;;0.10;0.10;;;11.60;99.90;;;;;;6159506;23;20009;-88
2023/05/16 01:44:32;;;;;;;0.10;0.10;;;11.40;99.90;;;;;;6157650;23;20034;-87
2023/05/16 01:47:01;;;;;;;0.10;0.10;;;11.40;99.90;;;;;;6156698;23;20005;-87
2023/05/16 01:49:48;;;;;;;0.10;0.10;;;11.50;99.90;;;;;;6157402;23;20012;-88
2023/05/16 01:52:25;;;;;;;0.00;0.00;;;11.30;99.90;;;;;;6157834;23;19998;-88
2023/05/16 01:54:53;;;;;;;0.10;0.10;;;11.10;99.90;;;;;;6158324;23;20012;-87
2023/05/16 01:57:23;;;;;;;0.10;0.10;;;10.80;99.90;;;;;;6158483;23;20008;-87
2023/05/16 01:59:49;;;;;;;0.00;0.00;;;;;;;;;;6159480;23;20001;-88
2023/05/16 02:02:17;;;;;;;0.10;0.10;;;10.80;99.90;;;;;;6158229;23;20040;-88
2023/05/16 02:04:43;;;;;;;0.10;0.10;;;10.80;99.90;;;;;;6158274;23;20024;-89
2023/05/16 02:07:09;;;;;;;0.10;0.10;;;;;;;;;;6158980;23;20001;-89
2023/05/16 02:09:35;;;;;;;0.10;0.10;;;;;;;;;;6158633;23;20001;-86
2023/05/16 02:12:01;;;;;;;0.10;0.10;;;;;;;;;;6158200;23;20093;-88
2023/05/16 02:14:26;;;;;;;0.10;0.10;;;10.80;99.90;;;;;;6158655;23;20001;-87
2023/05/16 02:16:52;;;;;;;0.10;0.10;;;10.70;99.90;;;;;;6158679;23;20011;-89
2023/05/16 02:19:18;;;;;;;0.00;0.00;;;;;;;;;;6184800;23;20044;-87
2023/05/16 02:21:44;;;;;;;0.10;0.10;;;;;;;;;;6159400;23;20056;-89
2023/05/16 02:24:09;;;;;;;0.10;0.10;;;10.80;99.90;;;;;;6160009;23;20408;-87
2023/05/16 02:26:35;;;;;;;0.00;0.00;;;10.80;99.90;;;;;;6158333;23;20040;-88
2023/05/16 02:29:01;;;;;;;0.10;0.10;;;;;;;;;;6158564;23;20009;-87
2023/05/16 02:31:28;;;;;;;0.10;0.10;;;10.70;99.90;;;;;;6158407;23;20445;-88
2023/05/16 02:33:54;;;;;;;0.10;0.10;;;;;;;;;;6158932;23;20325;-87
2023/05/16 02:36:20;;;;;;;0.10;0.10;;;10.70;99.90;;;;;;6158588;23;20001;-87
2023/05/16 02:38:46;;;;;;;0.08;0.08;;;;;;;;;;6158328;23;20017;-87
2023/05/16 02:41:12;;;;;;;0.10;0.10;;;;;;;;;;6157851;23;20001;-87
2023/05/16 02:43:37;;;;;;;0.10;0.10;;;10.80;99.90;;;;;;6158506;23;20100;-86
2023/05/16 02:46:32;;;;;;;0.00;0.00;;;10.60;99.90;;;;;;6158850;23;20036;-88
2023/05/16 02:49:02;;;;;;;0.10;0.10;;;;;;;;;;6158074;23;20009;-89
2023/05/16 02:51:28;;;;;;;0.10;0.10;;;10.20;99.90;;;;;;6158235;23;20005;-89
2023/05/16 02:53:58;;;;;;;0.00;0.00;;;10.20;99.90;;;;;;6158725;23;20114;-86
2023/05/16 02:56:25;;;;;;;0.10;0.10;;;10.00;99.90;;;;;;6157611;23;20065;-87
2023/05/16 02:58:51;;;;;;;0.10;0.10;;;;;;;;;;6159186;23;20009;-87
2023/05/16 03:01:17;;;;;;;0.10;0.10;;;;;;;;;;6159298;23;20505;-88
2023/05/16 03:03:42;;;;;;;0.10;0.10;;;10.30;99.90;;;;;;6185844;23;20008;-88
2023/05/16 03:06:08;;;;;;;0.08;0.08;;;;;;;;;;6185149;23;20001;-88
2023/05/16 03:08:34;;;;;;;0.00;0.00;;;10.20;99.90;;;;;;6156951;23;20016;-89
2023/05/16 03:11:01;;;;;;;0.00;0.00;;;;;;;;;;6158224;23;20097;-89
2023/05/16 03:13:28;;;;;;;0.00;0.00;;;;;;;;;;6158303;23;20396;-88
2023/05/16 03:15:54;;;;;;;0.03;0.03;;;10.30;99.90;;;;;;6158971;23;20005;-88
2023/05/16 03:18:20;;;;;;;0.10;0.10;;;10.10;99.90;;;;;;6159472;23;20009;-89
2023/05/16 03:20:46;;;;;;;0.10;0.10;;;10.00;99.90;;;;;;6160078;23;20112;-87
2023/05/16 03:23:12;;;;;;;0.10;0.10;;;;;;;;;;6158565;23;20012;-88
2023/05/16 03:25:37;;;;;;;0.00;0.00;;;10.20;99.90;;;;;;6157591;23;20005;-88
2023/05/16 03:28:06;;;;;;;0.10;0.10;;;10.20;99.90;;;;;;6158289;23;20017;-88
2023/05/16 03:30:31;;;;;;;0.10;0.10;;;10.50;99.90;;;;;;6157031;23;20012;-89
2023/05/16 03:32:57;;;;;;;0.00;0.00;;;10.10;99.90;;;;;;6184991;23;20005;-90
2023/05/16 03:35:23;;;;;;;0.10;0.10;;;10.00;99.90;;;;;;6182741;23;20420;-86
2023/05/16 03:37:49;;;;;;;0.10;0.10;;;9.80;99.90;;;;;;6158351;23;20052;-88
2023/05/16 03:40:14;;;;;;;0.10;0.10;;;10.00;99.90;;;;;;6158202;23;20001;-87
2023/05/16 03:42:40;;;;;;;0.10;0.10;;;10.00;99.90;;;;;;6159046;23;20076;-83
2023/05/16 03:45:06;;;;;;;0.10;0.10;;;10.10;99.90;;;;;;6158909;23;20024;-87
2023/05/16 03:47:32;;;;;;;0.10;0.10;;;10.10;99.90;;;;;;6159092;23;20084;-88
2023/05/16 03:49:57;;;;;;;0.00;0.00;;;9.90;99.90;;;;;;6158522;23;20052;-89
2023/05/16 03:52:23;;;;;;;0.10;0.10;;;10.10;99.90;;;;;;6159152;23;20009;-88
2023/05/16 03:54:49;;;;;;;0.10;0.10;;;10.00;99.90;;;;;;6159779;23;20004;-87
2023/05/16 03:57:15;;;;;;;0.10;0.10;;;;;;;;;;6157344;23;20011;-88
2023/05/16 03:59:41;;;;;;;0.10;0.10;;;;;;;;;;6158626;23;20684;-86
2023/05/16 04:02:07;;;;;;;0.10;0.10;;;;;;;;;;6158925;23;20055;-85
2023/05/16 04:04:33;;;;;;;0.10;0.10;;;;;;;;;;6158299;23;20032;-88
2023/05/16 04:06:59;;;;;;;0.10;0.10;;;10.00;99.90;;;;;;6158125;23;20417;-87
2023/05/16 04:09:24;;;;;;;0.10;0.10;;;10.10;99.90;;;;;;6158330;23;20005;-89
2023/05/16 04:11:50;;;;;;;0.10;0.10;;;10.00;99.90;;;;;;6158036;23;20013;-88
2023/05/16 04:14:16;;;;;;;0.10;0.10;;;;;;;;;;6159338;23;20036;-87
2023/05/16 04:16:42;;;;;;;0.00;0.00;;;9.90;99.90;;;;;;6158074;23;20457;-86
2023/05/16 04:19:07;;;;;;;0.10;0.10;;;9.70;99.90;;;;;;6158565;23;20433;-87
2023/05/16 04:21:34;;;;;;;0.10;0.10;;;10.80;99.90;;;;;;6158125;23;20145;-89
2023/05/16 04:24:00;;;;;;;0.10;0.10;;;;;;;;;;6160300;23;20851;-85
2023/05/16 04:26:26;;;;;;;0.10;0.10;;;10.00;99.90;;;;;;6159106;23;20009;-88
2023/05/16 04:28:52;;;;;;;0.10;0.10;;;10.00;99.90;;;;;;6159407;23;20029;-88
2023/05/16 04:31:18;;;;;;;0.10;0.10;;;;;;;;;;6160041;23;20448;-87
2023/05/16 04:33:44;;;;;;;0.10;0.10;;;;;;;;;;6159608;23;20094;-87
2023/05/16 04:36:11;;;;;;;0.10;0.10;;;;;;;;;;6160094;23;20624;-87
2023/05/16 04:38:36;;;;;;;0.10;0.10;;;9.80;99.90;;;;;;6158551;23;20058;-87
2023/05/16 04:41:02;;;;;;;0.10;0.10;;;9.70;99.90;;;;;;6157770;23;20032;-87
2023/05/16 04:43:28;;;;;;;0.10;0.10;;;9.80;99.90;;;;;;6184340;23;20012;-89
2023/05/16 04:45:53;;;;;;;0.00;0.00;;;9.60;99.90;;;;;;6159341;23;20012;-87
2023/05/16 04:48:19;;;;;;;0.00;0.00;;;9.50;99.90;;;;;;6158196;23;20084;-86
2023/05/16 04:50:44;;;;;;;0.10;0.10;;;9.70;99.90;;;;;;6159372;23;20500;-89
2023/05/16 04:53:10;;;;;;;0.10;0.10;;;9.50;99.90;;;;;;6159029;23;20009;-86
2023/05/16 04:55:36;;;;;;;0.10;0.10;;;;;;;;;;6157216;23;20092;-88
2023/05/16 04:58:02;;;;;;;0.10;0.10;;;;;;;;;;6158372;23;20005;-87
2023/05/16 05:00:28;;;;;;;0.10;0.10;;;;;;;;;;6159729;23;20036;-87
2023/05/16 05:02:54;;;;;;;0.10;0.10;;;;;;;;;;6160919;23;20099;-89
2023/05/16 05:05:20;;;;;;;0.10;0.10;;;9.60;99.90;;;;;;6161455;23;19997;-88
2023/05/16 05:07:46;;;;;;;0.10;0.10;;;;;;;;;;6160868;23;20429;-87
2023/05/16 05:10:12;;;;;;;0.10;0.10;;;;;;;;;;6160201;23;20005;-86
2023/05/16 05:12:38;;;;;;;0.00;0.00;;;;;;;;;;6159462;23;20008;-88
2023/05/16 05:15:05;;;;;;;0.10;0.10;;;9.70;99.90;;;;;;6161596;23;20059;-88
2023/05/16 05:17:31;;;;;;;0.10;0.10;;;;;;;;;;6161175;23;20009;-87
2023/05/16 05:19:56;;;;;;;0.10;0.10;;;10.10;99.90;;;;;;6158161;23;20044;-87
2023/05/16 05:22:22;;;;;;;0.05;0.05;;;9.90;99.90;;;;;;6159221;23;20483;-86
2023/05/16 05:24:48;;;;;;;0.10;0.10;;;;;;;;;;6158855;23;20033;-88
2023/05/16 05:27:13;;;;;;;0.10;0.10;;;9.60;99.90;;;;;;6156424;23;20017;-87
2023/05/16 05:29:39;;;;;;;0.10;0.10;;;9.70;99.90;;;;;;6158777;23;20052;-86
2023/05/16 05:32:05;;;;;;;0.10;0.10;;;9.60;99.90;;;;;;6159533;23;20016;-88
2023/05/16 05:34:32;;;;;;;0.10;0.10;;;;;;;;;;6159053;23;20337;-86
2023/05/16 05:36:57;;;;;;;0.10;0.10;;;9.70;99.90;;;;;;6158457;23;19998;-88
2023/05/16 05:39:24;;;;;;;0.10;0.10;;;;;;;;;;6159241;23;20016;-85
2023/05/16 05:41:50;;;;;;;0.10;0.10;;;;;;;;;;6158031;23;20012;-87
2023/05/16 05:44:16;;;;;;;0.10;0.10;;;9.60;99.90;;;;;;6159074;23;20001;-88
2023/05/16 05:46:42;;;;;;;0.10;0.10;;;9.60;99.90;;;;;;6159640;23;20088;-85
2023/05/16 05:49:07;;;;;;;0.10;0.10;;;9.40;99.90;;;;;;6185895;23;20437;-87
2023/05/16 05:51:33;;;;;;;0.10;0.10;;;9.60;99.90;;;;;;6156996;23;20040;-88
2023/05/16 05:53:58;;;;;;;0.10;0.10;;;9.40;99.90;;;;;;6158438;23;20012;-87
2023/05/16 05:56:24;;;;;;;0.10;0.10;;;9.30;99.90;;;;;;6157991;23;20009;-86
2023/05/16 05:58:50;;;;;;;0.05;0.05;;;9.30;99.90;;;;;;6183439;23;20015;-87
2023/05/16 06:01:16;;;;;;;0.10;0.10;;;9.40;99.90;;;;;;6158697;23;20001;-85
2023/05/16 06:03:42;;;;;;;0.10;0.10;;;9.50;99.90;;;;;;6158038;23;20012;-86
2023/05/16 06:06:08;;;;;;;0.10;0.10;;;9.60;99.90;;;;;;6158582;23;20009;-89
2023/05/16 06:08:34;;;;;;;0.10;0.10;;;;;;;;;;6158227;23;20009;-86
2023/05/16 06:11:00;;;;;;;0.10;0.10;;;;;;;;;;6158049;23;20012;-88
2023/05/16 06:13:26;;;;;;;0.10;0.10;;;9.60;99.90;;;;;;6158868;23;20001;-88
2023/05/16 06:15:52;;;;;;;0.10;0.10;;;9.80;99.90;;;;;;6158424;23;20064;-87
2023/05/16 06:18:18;;;;;;;0.10;0.10;;;9.80;99.90;;;;;;6184085;23;20009;-87
2023/05/16 06:20:44;;;;;;;0.10;0.10;;;10.00;99.90;;;;;;6159167;23;20088;-86
2023/05/16 06:23:10;;;;;;;0.10;0.10;;;;;;;;;;6160494;23;20009;-88
2023/05/16 06:25:35;;;;;;;0.10;0.10;;;9.60;99.90;;;;;;6159186;23;20005;-87
2023/05/16 06:28:01;;;;;;;0.10;0.10;;;9.70;99.90;;;;;;6158737;23;20341;-88
2023/05/16 06:30:26;;;;;;;0.00;0.00;;;9.60;99.90;;;;;;6158957;23;20040;-88
2023/05/16 06:32:52;;;;;;;0.10;0.10;;;9.30;99.90;;;;;;6158467;23;20009;-86
2023/05/16 06:35:18;;;;;;;0.10;0.10;;;;;;;;;;6160218;23;20046;-85
2023/05/16 06:37:43;;;;;;;0.10;0.10;;;9.90;99.90;;;;;;6158170;23;20009;-86
2023/05/16 06:40:09;;;;;;;0.10;0.10;;;9.90;99.90;;;;;;6158435;23;20001;-86
2023/05/16 06:42:35;;;;;;;0.10;0.10;;;10.20;99.90;;;;;;6157451;23;20597;-86
2023/05/16 06:45:01;;;;;;;0.00;0.00;;;;;;;;;;6158361;23;20001;-86
2023/05/16 06:47:26;;;;;;;0.10;0.10;;;10.20;99.90;;;;;;6158517;23;20001;-87
2023/05/16 06:49:52;;;;;;;0.10;0.10;;;10.40;99.90;;;;;;6158059;23;20028;-86
2023/05/16 06:52:17;;;;;;;0.00;0.00;;;10.10;99.90;;;;;;6158024;23;20448;-88
2023/05/16 06:54:43;;;;;;;0.10;0.10;;;10.00;99.90;;;;;;6158440;23;20005;-87
2023/05/16 06:57:08;;;;;;;0.10;0.10;;;9.60;99.90;;;;;;6157102;23;20008;-86
2023/05/16 06:59:35;;;;;;;0.10;0.10;;;;;;;;;;6157753;23;20016;-88
2023/05/16 07:02:01;;;;;;;0.00;0.00;;;9.70;99.90;;;;;;6157901;23;20059;-87
2023/05/16 07:04:27;;;;;;;0.10;0.10;;;9.90;99.90;;;;;;6157947;23;19997;-88
2023/05/16 07:06:53;;;;;;;0.10;0.10;;;9.80;99.90;;;;;;6157283;23;20013;-87
2023/05/16 07:09:19;;;;;;;0.00;0.00;;;9.70;99.90;;;;;;6184405;23;20001;-85
2023/05/16 07:11:45;;;;;;;0.00;0.00;;;;;;;;;;6157341;23;20080;-85
2023/05/16 07:14:11;;;;;;;0.00;0.00;;;9.90;99.90;;;;;;6158207;23;20087;-87
2023/05/16 07:16:36;;;;;;;0.10;0.10;;;10.10;99.90;;;;;;6157657;23;20408;-88
2023/05/16 07:19:02;;;;;;;0.10;0.10;;;10.30;99.90;;;;;;6155440;23;20039;-88
2023/05/16 07:21:28;;;;;;;0.00;0.00;;;10.50;99.90;;;;;;6148453;23;20506;-85
2023/05/16 07:23:54;;;;;;;0.00;0.00;;;;;;;;;;6180802;23;20001;-86
2023/05/16 07:26:22;;;;;;;0.10;0.10;;;10.80;99.90;;;;;;6156138;23;20005;-88
2023/05/16 07:28:48;;;;;;;0.10;0.10;;;10.90;99.90;;;;;;6156426;23;20425;-87
2023/05/16 07:31:15;;;;;;;0.00;0.00;;;10.80;99.90;;;;;;6156679;23;20009;-87
2023/05/16 07:33:41;;;;;;;0.00;0.00;;;11.00;99.90;;;;;;6156170;23;20383;-87
2023/05/16 07:36:07;;;;;;;0.03;0.03;;;11.10;99.90;;;;;;6156571;23;20001;-87
2023/05/16 07:38:32;;;;;;;0.10;0.10;;;10.90;99.90;;;;;;6157198;23;20016;-88
2023/05/16 07:40:58;;;;;;;0.08;0.08;;;10.70;99.90;;;;;;6157037;23;20008;-87
2023/05/16 07:43:23;;;;;;;0.10;0.10;;;10.70;99.90;;;;;;6156956;23;20005;-86
2023/05/16 07:45:49;;;;;;;0.10;0.10;;;11.20;99.90;;;;;;6157194;23;20028;-87
2023/05/16 07:48:15;;;;;;;0.10;0.10;;;11.20;99.90;;;;;;6156486;23;20056;-87
2023/05/16 07:50:42;;;;;;;0.10;0.10;;;11.10;99.90;;;;;;6157612;23;20087;-86
2023/05/16 07:53:08;;;;;;;0.08;0.08;;;11.50;99.90;;;;;;6156031;23;20009;-89
2023/05/16 07:55:33;;;;;;;0.10;0.10;;;11.20;99.90;;;;;;6159450;23;20396;-86
2023/05/16 07:57:59;;;;;;;0.10;0.10;;;11.00;99.90;;;;;;6158905;23;20433;-87
2023/05/16 08:00:25;;;;;;;0.00;0.00;;;10.80;99.90;;;;;;6159728;23;20353;-88
2023/05/16 08:02:50;;;;;;;0.00;0.00;;;10.70;99.90;;;;;;6159896;23;20008;-88
2023/05/16 08:05:16;;;;;;;0.10;0.10;;;11.10;99.90;;;;;;6159487;23;20005;-88
2023/05/16 08:07:41;;;;;;;0.00;0.00;;;11.20;99.90;;;;;;6159032;23;20318;-87
2023/05/16 08:10:07;;;;;;;0.10;0.10;;;11.60;99.90;;;;;;6159446;23;20425;-87
2023/05/16 08:12:33;;;;;;;0.00;0.00;;;11.70;99.90;;;;;;6158665;23;20032;-87
2023/05/16 08:14:59;;;;;;;0.10;0.10;;;;;;;;;;6159493;23;20005;-87
2023/05/16 08:17:25;;;;;;;0.10;0.10;;;;;;;;;;6158457;23;20005;-84
2023/05/16 08:19:50;;;;;;;0.00;0.00;;;11.00;99.90;;;;;;6158935;23;19993;-87
2023/05/16 08:22:16;;;;;;;0.00;0.00;;;11.30;99.90;;;;;;6159333;23;19998;-87
2023/05/16 08:24:41;;;;;;;0.10;0.10;;;11.30;99.60;;;;;;6158815;23;19997;-88
2023/05/16 08:27:07;;;;;;;0.05;0.05;;;11.50;99.30;;;;;;6158333;23;20016;-87
2023/05/16 08:29:33;;;;;;;0.10;0.10;;;;;;;;;;6158834;23;20349;-88
2023/05/16 08:31:59;;;;;;;0.00;0.00;;;11.80;97.70;;;;;;6159467;23;20090;-88
2023/05/16 08:34:25;;;;;;;0.00;0.00;;;;;;;;;;6159762;23;20009;-88
2023/05/16 08:36:51;;;;;;;0.00;0.00;;;;;;;;;;6159021;23;20009;-86
2023/05/16 08:39:16;;;;;;;0.10;0.10;;;11.80;98.80;;;;;;6159390;23;20321;-87
2023/05/16 08:41:42;;;;;;;0.10;0.10;;;11.40;98.60;;;;;;6158482;23;20008;-87
2023/05/16 08:44:09;;;;;;;0.00;0.00;;;11.40;98.80;;;;;;6159592;23;20005;-88
2023/05/16 08:46:36;;;;;;;0.00;0.00;;;11.80;97.80;;;;;;6158594;23;20001;-88
2023/05/16 08:49:06;;;;;;;0.10;0.10;;;12.00;96.90;;;;;;6157964;23;20013;-87
2023/05/16 08:51:35;;;;;;;0.10;0.10;;;12.00;97.00;;;;;;6157917;23;20471;-87
2023/05/16 08:54:10;;;;;;;0.08;0.08;;;11.70;97.40;;;;;;6158567;23;20092;-86
2023/05/16 08:56:37;;;;;;;0.00;0.00;;;12.00;96.10;;;;;;6158732;23;20400;-87
2023/05/16 08:59:04;;;;;;;0.00;0.00;;;12.10;96.70;;;;;;6154269;23;20360;-88
2023/05/16 09:01:33;;;;;;;0.00;0.00;;;12.40;96.60;;;;;;6158455;23;20001;-87
2023/05/16 09:04:00;;;;;;;0.10;0.10;;;12.40;95.50;;;;;;6158701;23;20005;-88
2023/05/16 09:06:26;;;;;;;0.00;0.00;;;;;;;;;;6157992;23;20106;-88
2023/05/16 09:08:55;;;;;;;0.00;0.00;;;12.50;96.20;;;;;;6158759;23;20001;-85
2023/05/16 09:11:21;;;;;;;0.00;0.00;;;12.20;95.20;;;;;;6158187;23;20084;-88
2023/05/16 09:13:47;;;;;;;0.10;0.10;;;12.20;94.90;;;;;;6158177;23;20005;-85
2023/05/16 09:16:18;;;;;;;0.00;0.00;;;12.60;95.20;;;;;;6158302;23;20096;-86
2023/05/16 09:18:45;;;;;;;0.00;0.00;;;12.60;95.30;;;;;;6158425;23;20494;-88
2023/05/16 09:21:12;;;;;;;0.00;0.00;;;13.00;94.50;;;;;;6158606;23;20440;-85
2023/05/16 09:23:38;;;;;;;0.00;0.00;;;12.80;94.70;;;;;;6159343;23;20004;-88
2023/05/16 09:26:07;;;;;;;0.00;0.00;;;11.90;95.20;;;;;;6158772;23;20013;-88
2023/05/16 09:28:33;;;;;;;0.00;0.00;;;11.90;95.40;;;;;;6158333;23;20044;-85
2023/05/16 09:30:59;;;;;;;0.00;0.00;;;;;;;;;;6158107;23;20063;-86
2023/05/16 09:33:28;;;;;;;0.10;0.10;;;11.70;95.50;;;;;;6158915;23;20005;-86
2023/05/16 09:36:02;;;;;;;0.00;0.00;;;11.80;95.70;;;;;;6158765;23;20009;-87
2023/05/16 09:38:27;;;;;;;0.00;0.00;;;12.20;95.10;;;;;;6159313;23;20005;-86
2023/05/16 09:40:54;;;;;;;0.00;0.00;;;12.60;95.10;;;;;;6158286;23;20005;-87
2023/05/16 09:43:24;;;;;;;0.00;0.00;;;13.10;95.10;;;;;;6158939;23;20076;-87
2023/05/16 09:45:50;;;;;;;0.00;0.00;;;;;;;;;;6159206;23;20341;-87
2023/05/16 09:48:17;;;;;;;0.00;0.00;;;;;;;;;;6158942;23;20015;-87
2023/05/16 09:50:51;;;;;;;0.10;0.10;;;12.90;94.90;;;;;;6159212;23;20001;-87
2023/05/16 09:53:18;;;;;;;0.00;0.00;;;12.80;95.00;;;;;;6158975;23;20491;-89
2023/05/16 09:55:43;;;;;;;0.00;0.00;;;13.50;94.10;;;;;;6158686;23;20527;-88
2023/05/16 09:58:09;;;;;;;0.00;0.00;;;13.50;94.20;;;;;;6159171;23;20011;-88
2023/05/16 10:00:34;;;;;;;0.00;0.00;;;13.60;93.30;;;;;;6158692;23;20001;-88
2023/05/16 10:03:04;;;;;;;0.00;0.00;;;13.30;93.10;;;;;;6158869;23;20112;-88
2023/05/16 10:05:30;;;;;;;;;;;13.10;93.70;;;;;;6159196;23;20016;-89
2023/05/16 10:07:56;;;;;;;0.00;0.00;;;12.80;92.80;;;;;;6158703;23;19900;-88
2023/05/16 10:10:23;;;;;;;0.00;0.00;;;12.80;93.00;;;;;;6156686;23;20452;-89
2023/05/16 10:12:50;;;;;;;0.00;0.00;;;13.00;93.20;;;;;;6160737;23;20079;-88
2023/05/16 10:15:16;;;;;;;0.00;0.00;;;13.30;93.00;;;;;;6158864;23;20087;-86
2023/05/16 10:17:44;;;;;;;0.00;0.00;;;13.80;91.40;;;;;;6158274;23;20057;-87
2023/05/16 10:20:11;;;;;;;0.00;0.00;;;13.90;90.70;;;;;;6158918;23;20055;-88
2023/05/16 10:22:42;;;;;;;0.00;0.00;;;13.80;91.20;;;;;;6158763;23;20005;-88
2023/05/16 10:25:21;;;;;;;0.00;0.00;;;13.80;91.20;;;;;;6158925;23;20004;-88
2023/05/16 10:27:47;;;;;;;0.00;0.00;;;;;;;;;;6158622;23;20314;-88
2023/05/16 10:30:14;;;;;;;0.00;0.00;;;;;;;;;;6155400;23;20046;-88
2023/05/16 10:32:41;;;;;;;0.00;0.00;;;14.10;90.60;;;;;;6159266;23;20009;-88
2023/05/16 10:35:08;;;;;;;0.00;0.00;;;13.70;91.40;;;;;;6159840;23;20076;-88
2023/05/16 10:37:35;;;;;;;0.00;0.00;;;13.20;92.50;;;;;;6184378;23;20353;-86
2023/05/16 10:40:04;;;;;;;0.00;0.00;;;12.70;93.90;;;;;;6157471;23;20377;-86
2023/05/16 10:42:31;;;;;;;0.00;0.00;;;12.60;95.50;;;;;;6157830;23;20393;-88
2023/05/16 10:45:14;;;;;;;0.00;0.00;;;13.10;94.70;;;;;;6158063;23;20005;-87
2023/05/16 10:47:40;;;;;;;0.00;0.00;;;13.00;95.10;;;;;;6158334;23;20015;-87
2023/05/16 10:50:06;;;;;;;0.00;0.00;;;13.80;93.80;;;;;;6157866;23;20005;-87
2023/05/16 10:52:34;;;;;;;0.00;0.00;;;13.80;94.00;;;;;;6158159;23;20052;-85
2023/05/16 10:55:01;;;;;;;0.00;0.00;;;13.60;91.90;;;;;;6156840;23;20089;-88
2023/05/16 10:57:27;;;;;;;0.00;0.00;;;;;;;;;;6154448;23;20104;-87
2023/05/16 10:59:55;;;;;;;0.00;0.00;;;;;;;;;;6154782;23;20005;-87
2023/05/16 11:02:31;;;;;;;0.00;0.00;;;12.90;91.80;;;;;;6157576;23;20135;-87
2023/05/16 11:04:59;;;;;;;0.00;0.00;;;12.60;86.90;;;;;;6157599;23;19997;-88
2023/05/16 11:07:29;;;;;;;0.00;0.00;;;12.60;86.50;;;;;;6157851;23;19997;-88
2023/05/16 11:10:04;;;;;;;0.00;0.00;;;12.60;86.20;;;;;;6133530;23;20013;-85
2023/05/16 11:12:49;;;;;;;0.10;0.10;;;12.60;86.50;;;;;;6158628;23;20470;-88
2023/05/16 11:15:30;;;;;;;0.00;0.00;;;12.30;88.10;;;;;;6158813;23;20472;-86
2023/05/16 11:18:12;;;;;;;0.00;0.00;;;12.50;87.70;;;;;;6185926;23;20440;-86
2023/05/16 11:20:39;;;;;;;0.00;0.00;;;12.30;89.00;;;;;;6159018;23;19997;-88
2023/05/16 11:23:20;;;;;;;0.00;0.00;;;13.00;91.20;;;;;;6157823;23;20097;-87
2023/05/16 11:25:52;;;;;;;0.00;0.00;;;13.40;85.10;;;;;;6158070;23;20060;-86
2023/05/16 11:28:19;;;;;;;0.00;0.00;;;13.30;85.70;;;;;;6134437;23;20029;-89
2023/05/16 11:30:51;;;;;;;0.00;0.00;;;13.20;89.40;;;;;;6160041;23;20005;-87
2023/05/16 11:33:17;;;;;;;0.00;0.00;;;13.30;89.80;;;;;;6158949;23;20009;-88
2023/05/16 11:35:58;;;;;;;0.00;0.00;;;13.30;90.50;;;;;;6158452;23;20099;-87
2023/05/16 11:38:24;;;;;;;0.00;0.00;;;13.30;90.70;;;;;;6159760;23;20104;-88
2023/05/16 11:40:49;;;;;;;0.00;0.00;;;13.50;90.10;;;;;;6158656;23;20119;-88
2023/05/16 11:43:18;;;;;;;0.00;0.00;;;13.90;89.90;;;;;;6157323;23;20001;-89
2023/05/16 11:45:44;;;;;;;0.00;0.00;;;13.80;90.00;;;;;;6149986;23;20409;-87
2023/05/16 11:48:10;;;;;;;0.00;0.00;;;13.80;89.60;;;;;;6185686;23;20009;-88
2023/05/16 11:50:35;;;;;;;0.00;0.00;;;14.10;90.40;;;;;;6158474;23;20499;-90
2023/05/16 11:53:01;;;;;;;0.00;0.00;;;15.70;87.90;;;;;;6157996;23;20016;-86
2023/05/16 11:55:29;;;;;;;0.00;0.00;;;14.80;85.00;;;;;;6158381;23;20015;-87
2023/05/16 11:57:56;;;;;;;0.00;0.00;;;14.60;85.70;;;;;;6155044;23;20282;-88
2023/05/16 12:00:24;;;;;;;0.00;0.00;;;14.70;90.10;;;;;;6157143;23;20001;-88
2023/05/16 12:02:50;;;;;;;0.00;0.00;;;14.90;88.40;;;;;;6158353;23;20008;-86
2023/05/16 12:05:17;;;;;;;0.00;0.00;;;15.00;86.20;;;;;;6156511;23;20001;-88
2023/05/16 12:07:44;;;;;;;0.00;0.00;;;14.70;88.10;;;;;;6158368;23;20097;-90
2023/05/16 12:10:13;;;;;;;0.00;0.00;;;14.50;86.60;;;;;;6157755;23;20005;-87
2023/05/16 12:12:43;;;;;;;0.00;0.00;;;13.90;87.90;;;;;;6158863;23;20001;-88
2023/05/16 12:15:09;;;;;;;0.00;0.00;;;14.00;88.20;;;;;;6157693;23;20088;-87
2023/05/16 12:17:36;;;;;;;0.00;0.00;;;13.60;86.90;;;;;;6157788;23;20005;-88
2023/05/16 12:20:06;;;;;;;0.00;0.00;;;13.40;87.60;;;;;;6181786;23;20020;-87
2023/05/16 12:22:33;;;;;;;0.00;0.00;;;13.80;87.90;;;;;;6157664;23;20349;-88
2023/05/16 12:24:59;;;;;;;0.00;0.00;;;13.80;87.80;;;;;;6158020;23;20001;-88
2023/05/16 12:27:26;;;;;;;0.00;0.00;;;13.40;89.20;;;;;;6157482;23;20097;-89
2023/05/16 12:29:52;;;;;;;0.00;0.00;;;13.60;88.80;;;;;;6156372;23;20009;-89
2023/05/16 12:32:20;;;;;;;0.00;0.00;;;13.40;88.70;;;;;;6184174;23;20075;-88
2023/05/16 12:34:51;;;;;;;0.00;0.00;;;13.50;89.80;;;;;;6159058;23;20543;-88
2023/05/16 12:37:17;;;;;;;0.00;0.00;;;13.80;89.80;;;;;;6159334;23;20438;-90
2023/05/16 12:39:45;;;;;;;0.00;0.00;;;14.10;87.50;;;;;;6159751;23;20009;-89
2023/05/16 12:42:12;;;;;;;0.00;0.00;;;14.40;86.30;;;;;;6158450;23;20008;-88
2023/05/16 12:44:38;;;;;;;0.00;0.00;;;14.10;85.20;;;;;;6158644;23;20027;-86
2023/05/16 12:47:11;;;;;;;0.00;0.00;;;14.20;85.10;;;;;;6185467;23;20005;-89
2023/05/16 12:49:43;;;;;;;0.00;0.00;;;14.20;85.80;;;;;;6160842;23;20459;-87
2023/05/16 12:52:16;;;;;;;0.00;0.00;;;14.40;86.20;;;;;;6160103;23;20005;-88
2023/05/16 12:54:42;;;;;;;0.00;0.00;;;14.60;86.60;;;;;;6157054;23;20005;-88
2023/05/16 12:57:09;;;;;;;0.00;0.00;;;14.40;84.60;;;;;;6157037;23;20012;-87
2023/05/16 12:59:34;;;;;;;0.00;0.00;;;14.00;83.10;;;;;;6156385;23;20092;-88
2023/05/16 13:01:59;;;;;;;0.00;0.00;;;14.00;83.80;;;;;;6156910;23;20029;-88
2023/05/16 13:04:25;;;;;;;0.00;0.00;;;13.90;85.10;;;;;;6158630;23;19993;-87
2023/05/16 13:06:51;;;;;;;0.00;0.00;;;13.90;87.10;;;;;;6158484;23;20500;-87
2023/05/16 13:09:17;;;;;;;0.00;0.00;;;13.40;91.40;;;;;;6157074;23;20444;-88
2023/05/16 13:11:43;;;;;;;0.00;0.00;;;13.20;92.10;;;;;;6157967;23;20492;-88